| time (UTC) | temp C | wind direction | speed KPH | gust KPH | rain 1hr cm | rain 24hr cm | rain mn cm | humidity % | barometer mb |
| 20260507160853 | 20 | 188 | 6.4 | 8.0 | 0.00 | 0.00 | 0.00 | 61 | |
| 20260507155734 | 20 | 199 | 6.4 | 9.7 | 0.00 | 0.00 | 0.00 | 59 | |
| 20260507154443 | 20 | 181 | 6.4 | 11.3 | 0.00 | 0.00 | 0.00 | 59 | |
| 20260507153215 | 20 | 240 | 6.4 | 11.3 | 0.00 | 0.00 | 0.00 | 58 | |
| 20260507152018 | 21 | 223 | 6.4 | 12.9 | 0.00 | 0.00 | 0.00 | 56 | |
| 20260507150907 | 21 | 227 | 4.8 | 9.7 | 0.00 | 0.00 | 0.00 | 58 | |
| 20260507145627 | 21 | 227 | 6.4 | 9.7 | 0.00 | 0.00 | 0.00 | 56 | |
| 20260507144425 | 21 | 235 | 6.4 | 14.5 | 0.00 | 0.00 | 0.00 | 58 | |
| 20260507143217 | 21 | 236 | 8.0 | 17.7 | 0.00 | 0.00 | 0.00 | 57 | |
| 20260507142034 | 21 | 229 | 9.7 | 16.1 | 0.00 | 0.00 | 0.00 | 55 | |
| 20260507140829 | 21 | 245 | 3.2 | 9.7 | 0.00 | 0.00 | 0.00 | 60 | |
| 20260507135621 | 22 | 219 | 6.4 | 17.7 | 0.00 | 0.00 | 0.00 | 59 | |
| 20260507134433 | 22 | 194 | 6.4 | 11.3 | 0.00 | 0.00 | 0.00 | 60 | |
| 20260507133219 | 21 | 242 | 6.4 | 12.9 | 0.00 | 0.00 | 0.00 | 62 | |
| 20260507132025 | 21 | 217 | 8.0 | 9.7 | 0.00 | 0.00 | 0.00 | 62 | |
| 20260507130831 | 21 | 231 | 9.7 | 16.1 | 0.00 | 0.00 | 0.00 | 61 | |
| 20260507125619 | 21 | 204 | 8.0 | 12.9 | 0.00 | 0.00 | 0.00 | 64 | |
| 20260507124429 | 21 | 235 | 9.7 | 14.5 | 0.00 | 0.00 | 0.00 | 64 | |
| 20260507123221 | 21 | 191 | 8.0 | 11.3 | 0.00 | 0.00 | 0.00 | 66 | |
| 20260507122027 | 21 | 218 | 8.0 | 17.7 | 0.00 | 0.00 | 0.00 | 67 | |
| 20260507120819 | 20 | 191 | 9.7 | 12.9 | 0.00 | 0.00 | 0.00 | 69 | |
| 20260507115615 | 21 | 214 | 6.4 | 9.7 | 0.00 | 0.00 | 0.00 | 70 | |
| 20260507114417 | 21 | 209 | 8.0 | 11.3 | 0.00 | 0.00 | 0.00 | 66 | |
| 20260507113223 | 21 | 186 | 8.0 | 11.3 | 0.00 | 0.00 | 0.00 | 66 | |
| 20260507112027 | 21 | 225 | 9.7 | 16.1 | 0.00 | 0.00 | 0.00 | 65 | |
| 20260507110853 | 21 | 215 | 6.4 | 9.7 | 0.00 | 0.00 | 0.00 | 66 | |
| 20260507105627 | 21 | 178 | 9.7 | 11.3 | 0.00 | 0.00 | 0.00 | 67 | |
| 20260507104433 | 20 | 206 | 8.0 | 14.5 | 0.00 | 0.00 | 0.00 | 67 | |
| 20260507103220 | 20 | 193 | 8.0 | 14.5 | 0.00 | 0.00 | 0.00 | 69 | |
| 20260507102017 | 20 | 212 | 6.4 | 9.7 | 0.00 | 0.00 | 0.00 | 70 | |
| 20260507100832 | 20 | 198 | 9.7 | 14.5 | 0.00 | 0.00 | 0.00 | 71 | |
| 20260507095629 | 19 | 214 | 8.0 | 14.5 | 0.00 | 0.00 | 0.00 | 73 | |
| 20260507094432 | 19 | 186 | 6.4 | 11.3 | 0.00 | 0.00 | 0.00 | 73 | |
| 20260507093216 | 18 | 215 | 9.7 | 16.1 | 0.00 | 0.00 | 0.00 | 73 | |
| 20260507092039 | 19 | 216 | 8.0 | 9.7 | 0.00 | 0.00 | 0.00 | 75 | |
| 20260507090825 | 18 | 192 | 9.7 | 11.3 | 0.00 | 0.00 | 0.00 | 76 | |
| 20260507085631 | 18 | 170 | 9.7 | 14.5 | 0.00 | 0.00 | 0.00 | 77 | |
| 20260507084433 | 18 | 210 | 11.3 | 14.5 | 0.00 | 0.00 | 0.00 | 77 | |
| 20260507083215 | 17 | 202 | 9.7 | 17.7 | 0.00 | 0.00 | 0.00 | 78 | |
| 20260507082021 | 18 | 183 | 12.9 | 14.5 | 0.00 | 0.00 | 0.00 | 78 | |
| 20260507080822 | 18 | 229 | 11.3 | 20.9 | 0.00 | 0.00 | 0.00 | 78 | |
| 20260507075619 | 19 | 209 | 8.0 | 9.7 | 0.00 | 0.00 | 0.00 | 79 | |
| 20260507074425 | 18 | 215 | 8.0 | 11.3 | 0.00 | 0.00 | 0.00 | 82 | |
| 20260507073237 | 17 | 172 | 6.4 | 9.7 | 0.00 | 0.00 | 0.00 | 84 | |
| 20260507072023 | 17 | 183 | 6.4 | 9.7 | 0.00 | 0.00 | 0.00 | 86 | |
| 20260507070817 | 17 | 197 | 8.0 | 11.3 | 0.00 | 0.00 | 0.00 | 87 | |
| 20260507065621 | 16 | 168 | 6.4 | 9.7 | 0.00 | 0.00 | 0.00 | 88 | |
| 20260507064432 | 16 | 206 | 6.4 | 9.7 | 0.00 | 0.00 | 0.00 | 89 | |
| 20260507063232 | 16 | 182 | 8.0 | 12.9 | 0.00 | 0.00 | 0.00 | 90 | |
| 20260507062025 | 16 | 188 | 8.0 | 9.7 | 0.00 | 0.00 | 0.00 | 90 | |
| 20260507060817 | 16 | 198 | 8.0 | 9.7 | 0.00 | 0.00 | 0.00 | 91 | |
| 20260507055623 | 15 | 171 | 6.4 | 12.9 | 0.00 | 0.00 | 0.00 | 91 | |
| 20260507054415 | 15 | 174 | 6.4 | 9.7 | 0.00 | 0.00 | 0.00 | 91 | |
| 20260507053312 | 15 | 167 | 6.4 | 9.7 | 0.00 | 0.00 | 0.00 | 91 | |
| 20260507052024 | 15 | 145 | 4.8 | 12.9 | 0.00 | 0.00 | 0.00 | 91 | |
| 20260507050832 | 15 | 171 | 3.2 | 4.8 | 0.00 | 0.00 | 0.00 | 91 | |
| 20260507045645 | 15 | 210 | 3.2 | 6.4 | 0.00 | 0.00 | 0.00 | 91 | |
| 20260507044438 | 15 | 170 | 4.8 | 9.7 | 0.00 | 0.00 | 0.00 | 91 | |
| 20260507043223 | 15 | 144 | 8.0 | 14.5 | 0.00 | 0.00 | 0.00 | 92 | |
| 20260507042045 | 15 | 162 | 6.4 | 12.9 | 0.00 | 0.00 | 0.00 | 92 | |
| 20260507040821 | 15 | 182 | 6.4 | 14.5 | 0.00 | 0.00 | 0.00 | 92 | |
| 20260507035631 | 15 | 173 | 6.4 | 9.7 | 0.00 | 0.00 | 0.00 | 92 | |
| 20260507034432 | 15 | 177 | 4.8 | 9.7 | 0.00 | 0.00 | 0.00 | 92 | |
| 20260507033225 | 15 | 151 | 4.8 | 6.4 | 0.00 | 0.00 | 0.00 | 92 | |
| 20260507032024 | 15 | 150 | 3.2 | 4.8 | 0.00 | 0.00 | 0.00 | 92 | |
| 20260507030831 | 15 | 145 | 3.2 | 8.0 | 0.00 | 0.00 | 0.00 | 92 | |
| 20260507025615 | 15 | 181 | 4.8 | 6.4 | 0.00 | 0.00 | 0.00 | 92 | |
| 20260507024451 | 15 | 196 | 3.2 | 4.8 | 0.00 | 0.00 | 0.00 | 92 | |
| 20260507023227 | 15 | 178 | 4.8 | 6.4 | 0.00 | 0.00 | 0.00 | 92 | |
| 20260507022040 | 15 | 185 | 4.8 | 6.4 | 0.00 | 0.00 | 0.00 | 92 | |
| 20260507020826 | 15 | 187 | 3.2 | 4.8 | 0.00 | 0.00 | 0.00 | 91 | |
| 20260507015617 | 15 | 197 | 6.4 | 11.3 | 0.00 | 0.00 | 0.00 | 92 | |
| 20260507014451 | 15 | 225 | 4.8 | 6.4 | 0.00 | 0.00 | 0.00 | 91 | |
| 20260507013309 | 15 | 168 | 4.8 | 9.7 | 0.00 | 0.00 | 0.00 | 91 | |
| 20260507012015 | 15 | 180 | 8.0 | 12.9 | 0.00 | 0.00 | 0.00 | 91 | |
| 20260507010831 | 15 | 200 | 6.4 | 9.7 | 0.00 | 0.00 | 0.00 | 91 | |
| 20260507005631 | 15 | 215 | 4.8 | 8.0 | 0.00 | 0.00 | 0.00 | 91 | |
| 20260507004445 | 15 | 205 | 6.4 | 9.7 | 0.00 | 0.00 | 0.00 | 90 | |
| 20260507003217 | 15 | 215 | 6.4 | 8.0 | 0.00 | 0.00 | 0.00 | 90 | |
| 20260507002024 | 15 | 217 | 4.8 | 6.4 | 0.00 | 0.00 | 0.00 | 90 | |
| 20260507000815 | 15 | 205 | 4.8 | 6.4 | 0.00 | 0.00 | 0.00 | 90 | |
| 20260506235621 | 15 | 184 | 6.4 | 14.5 | 0.00 | 0.00 | 0.00 | 90 | |
| 20260506234427 | 15 | 163 | 6.4 | 9.7 | 0.00 | 0.00 | 0.00 | 90 | |
| 20260506233219 | 15 | 159 | 8.0 | 16.1 | 0.00 | 0.00 | 0.00 | 90 | |
| 20260506232024 | 15 | 178 | 8.0 | 11.3 | 0.00 | 0.00 | 0.00 | 90 | |
| 20260506230837 | 15 | 171 | 6.4 | 9.7 | 0.00 | 0.00 | 0.00 | 90 | |
| 20260506225617 | 15 | 205 | 6.4 | 9.7 | 0.00 | 0.00 | 0.00 | 89 | |
| 20260506224415 | 15 | 190 | 4.8 | 9.7 | 0.00 | 0.00 | 0.00 | 89 | |
| 20260506223241 | 15 | 187 | 6.4 | 9.7 | 0.00 | 0.00 | 0.00 | 89 | |
| 20260506222024 | 15 | 204 | 4.8 | 4.8 | 0.00 | 0.00 | 0.00 | 88 | |
| 20260506220830 | 15 | 147 | 6.4 | 11.3 | 0.00 | 0.00 | 0.00 | 88 | |
| 20260506214417 | 15 | 176 | 4.8 | 9.7 | 0.00 | 0.00 | 0.00 | 88 | |
| 20260506213221 | 15 | 153 | 4.8 | 6.4 | 0.00 | 0.00 | 0.00 | 88 | |
| 20260506212104 | 15 | 193 | 8.0 | 17.7 | 0.00 | 0.00 | 0.00 | 88 | |
| 20260506210821 | 15 | 197 | 6.4 | 12.9 | 0.00 | 0.00 | 0.00 | 88 | |
| 20260506205647 | 15 | 160 | 11.3 | 24.1 | 0.00 | 0.00 | 0.00 | 88 | |
| 20260506204430 | 15 | 147 | 11.3 | 20.9 | 0.00 | 0.00 | 0.00 | 88 | |
| 20260506203217 | 14 | 200 | 9.7 | 14.5 | 0.00 | 0.00 | 0.00 | 87 | |
| 20260506202017 | 14 | 159 | 8.0 | 9.7 | 0.00 | 0.00 | 0.00 | 87 | |
| 20260506200823 | 13 | 191 | 6.4 | 20.9 | 0.00 | 0.00 | 0.00 | 85 | |
| 20260506195630 | 13 | 167 | 8.0 | 14.5 | 0.00 | 0.00 | 0.00 | 85 | |
| 20260506194421 | 13 | 192 | 9.7 | 12.9 | 0.00 | 0.00 | 0.00 | 85 | |
| 20260506193227 | 13 | 143 | 9.7 | 16.1 | 0.00 | 0.00 | 0.00 | 85 | |
| 20260506192019 | 13 | 181 | 4.8 | 6.4 | 0.00 | 0.00 | 0.00 | 85 | |
| 20260506190825 | 14 | 207 | 4.8 | 9.7 | 0.00 | 0.00 | 0.00 | 86 | |
| 20260506185637 | 14 | 152 | 8.0 | 12.9 | 0.00 | 0.00 | 0.00 | 85 | |
| 20260506184423 | 15 | 151 | 4.8 | 9.7 | 0.00 | 0.00 | 0.00 | 85 | |
| 20260506183235 | 15 | 171 | 6.4 | 8.0 | 0.00 | 0.00 | 0.00 | 84 | |
| 20260506182023 | 15 | 191 | 6.4 | 9.7 | 0.00 | 0.00 | 0.00 | 82 | |
| 20260506180819 | 16 | 191 | 8.0 | 11.3 | 0.00 | 0.00 | 0.00 | 81 | |
| 20260506175619 | 16 | 185 | 8.0 | 19.3 | 0.00 | 0.00 | 0.00 | 80 | |
| 20260506174505 | 16 | 136 | 9.7 | 20.9 | 0.00 | 0.00 | 0.00 | 80 | |
| 20260506173237 | 16 | 160 | 6.4 | 8.0 | 0.00 | 0.00 | 0.00 | 80 | |
| 20260506172021 | 17 | 142 | 8.0 | 12.9 | 0.00 | 0.00 | 0.00 | 78 | |
| 20260506170815 | 17 | 154 | 9.7 | 12.9 | 0.00 | 0.00 | 0.00 | 78 | |
| 20260506165641 | 17 | 126 | 11.3 | 16.1 | 0.00 | 0.00 | 0.00 | 78 | |
| 20260506164424 | 17 | 136 | 12.9 | 17.7 | 0.00 | 0.00 | 0.00 | 77 | |
| 20260506163219 | 18 | 156 | 9.7 | 17.7 | 0.00 | 0.00 | 0.00 | 77 | |
| 20260506162020 | 19 | 159 | 9.7 | 14.5 | 0.00 | 0.00 | 0.00 | 76 |